sensor_id;sensor_type;location;lat;lon;timestamp;temperature;humidity
23560;DHT22;11958;50.836;4.438;2024-02-21T00:00:11;9.40;91.40
23560;DHT22;11958;50.836;4.438;2024-02-21T00:02:37;9.40;91.00
23560;DHT22;11958;50.836;4.438;2024-02-21T00:05:03;9.30;91.20
23560;DHT22;11958;50.836;4.438;2024-02-21T00:07:28;9.40;91.50
23560;DHT22;11958;50.836;4.438;2024-02-21T00:09:54;9.40;91.50
23560;DHT22;11958;50.836;4.438;2024-02-21T00:12:20;9.40;91.20
23560;DHT22;11958;50.836;4.438;2024-02-21T00:14:45;9.50;91.00
23560;DHT22;11958;50.836;4.438;2024-02-21T00:17:11;9.60;90.90
23560;DHT22;11958;50.836;4.438;2024-02-21T00:19:37;9.50;91.20
23560;DHT22;11958;50.836;4.438;2024-02-21T00:22:03;9.50;91.00
23560;DHT22;11958;50.836;4.438;2024-02-21T00:24:29;9.50;90.80
23560;DHT22;11958;50.836;4.438;2024-02-21T00:26:54;9.50;91.00
23560;DHT22;11958;50.836;4.438;2024-02-21T00:29:20;9.60;90.70
23560;DHT22;11958;50.836;4.438;2024-02-21T00:31:46;9.40;90.60
23560;DHT22;11958;50.836;4.438;2024-02-21T00:34:11;9.40;91.10
23560;DHT22;11958;50.836;4.438;2024-02-21T00:36:38;9.50;90.60
23560;DHT22;11958;50.836;4.438;2024-02-21T00:39:04;9.70;90.20
23560;DHT22;11958;50.836;4.438;2024-02-21T00:41:30;9.80;88.60
23560;DHT22;11958;50.836;4.438;2024-02-21T00:43:55;9.60;88.80
23560;DHT22;11958;50.836;4.438;2024-02-21T00:46:21;9.70;89.30
23560;DHT22;11958;50.836;4.438;2024-02-21T00:48:47;9.70;88.70
23560;DHT22;11958;50.836;4.438;2024-02-21T00:51:12;9.60;89.30
23560;DHT22;11958;50.836;4.438;2024-02-21T00:53:38;9.80;88.80
23560;DHT22;11958;50.836;4.438;2024-02-21T00:56:05;9.60;89.50
23560;DHT22;11958;50.836;4.438;2024-02-21T00:58:31;9.60;90.00
23560;DHT22;11958;50.836;4.438;2024-02-21T01:00:57;9.70;89.20
23560;DHT22;11958;50.836;4.438;2024-02-21T01:03:23;9.50;89.00
23560;DHT22;11958;50.836;4.438;2024-02-21T01:05:48;9.40;89.60
23560;DHT22;11958;50.836;4.438;2024-02-21T01:08:14;9.50;89.70
23560;DHT22;11958;50.836;4.438;2024-02-21T01:10:40;9.40;89.80
23560;DHT22;11958;50.836;4.438;2024-02-21T01:13:05;9.50;90.20
23560;DHT22;11958;50.836;4.438;2024-02-21T01:15:32;9.40;90.50
23560;DHT22;11958;50.836;4.438;2024-02-21T01:17:58;9.40;90.20
23560;DHT22;11958;50.836;4.438;2024-02-21T01:20:24;9.50;89.70
23560;DHT22;11958;50.836;4.438;2024-02-21T01:22:49;9.40;89.90
23560;DHT22;11958;50.836;4.438;2024-02-21T01:25:15;9.50;90.20
23560;DHT22;11958;50.836;4.438;2024-02-21T01:27:41;9.60;89.20
23560;DHT22;11958;50.836;4.438;2024-02-21T01:30:07;9.60;89.40
23560;DHT22;11958;50.836;4.438;2024-02-21T01:32:33;9.70;89.40
23560;DHT22;11958;50.836;4.438;2024-02-21T01:34:59;9.60;89.20
23560;DHT22;11958;50.836;4.438;2024-02-21T01:37:24;9.80;88.80
23560;DHT22;11958;50.836;4.438;2024-02-21T01:39:50;9.40;89.40
23560;DHT22;11958;50.836;4.438;2024-02-21T01:42:16;9.40;89.90
23560;DHT22;11958;50.836;4.438;2024-02-21T01:44:42;9.50;89.70
23560;DHT22;11958;50.836;4.438;2024-02-21T01:47:07;9.30;90.30
23560;DHT22;11958;50.836;4.438;2024-02-21T01:49:33;9.30;90.70
23560;DHT22;11958;50.836;4.438;2024-02-21T01:52:00;9.40;90.30
23560;DHT22;11958;50.836;4.438;2024-02-21T01:54:26;9.30;90.90
23560;DHT22;11958;50.836;4.438;2024-02-21T01:56:54;9.30;90.60
23560;DHT22;11958;50.836;4.438;2024-02-21T01:59:21;9.20;91.20
23560;DHT22;11958;50.836;4.438;2024-02-21T02:01:47;9.10;91.70
23560;DHT22;11958;50.836;4.438;2024-02-21T02:04:13;9.10;91.50
23560;DHT22;11958;50.836;4.438;2024-02-21T02:06:40;9.10;91.80
23560;DHT22;11958;50.836;4.438;2024-02-21T02:09:06;9.10;91.30
23560;DHT22;11958;50.836;4.438;2024-02-21T02:11:32;9.10;91.50
23560;DHT22;11958;50.836;4.438;2024-02-21T02:13:58;9.00;91.60
23560;DHT22;11958;50.836;4.438;2024-02-21T02:16:24;9.10;91.70
23560;DHT22;11958;50.836;4.438;2024-02-21T02:18:49;9.10;91.90
23560;DHT22;11958;50.836;4.438;2024-02-21T02:21:30;9.30;91.10
23560;DHT22;11958;50.836;4.438;2024-02-21T02:23:58;9.20;91.20
23560;DHT22;11958;50.836;4.438;2024-02-21T02:26:24;9.30;90.50
23560;DHT22;11958;50.836;4.438;2024-02-21T02:28:50;9.30;91.00
23560;DHT22;11958;50.836;4.438;2024-02-21T02:31:15;9.20;90.90
23560;DHT22;11958;50.836;4.438;2024-02-21T02:33:43;9.30;90.40
23560;DHT22;11958;50.836;4.438;2024-02-21T02:36:09;9.40;90.60
23560;DHT22;11958;50.836;4.438;2024-02-21T02:38:35;9.40;90.30
23560;DHT22;11958;50.836;4.438;2024-02-21T02:41:01;9.40;90.20
23560;DHT22;11958;50.836;4.438;2024-02-21T02:43:26;9.40;89.50
23560;DHT22;11958;50.836;4.438;2024-02-21T02:45:52;9.70;89.00
23560;DHT22;11958;50.836;4.438;2024-02-21T02:48:17;9.50;89.40
23560;DHT22;11958;50.836;4.438;2024-02-21T02:50:45;9.40;89.50
23560;DHT22;11958;50.836;4.438;2024-02-21T02:53:11;9.30;89.50
23560;DHT22;11958;50.836;4.438;2024-02-21T02:55:37;9.40;89.80
23560;DHT22;11958;50.836;4.438;2024-02-21T02:58:02;9.50;89.40
23560;DHT22;11958;50.836;4.438;2024-02-21T03:00:28;9.40;89.40
23560;DHT22;11958;50.836;4.438;2024-02-21T03:02:54;9.30;89.60
23560;DHT22;11958;50.836;4.438;2024-02-21T03:05:21;9.50;89.30
23560;DHT22;11958;50.836;4.438;2024-02-21T03:07:47;9.50;89.50
23560;DHT22;11958;50.836;4.438;2024-02-21T03:10:14;9.50;88.90
23560;DHT22;11958;50.836;4.438;2024-02-21T03:12:42;9.50;89.00
23560;DHT22;11958;50.836;4.438;2024-02-21T03:15:08;9.70;88.10
23560;DHT22;11958;50.836;4.438;2024-02-21T03:17:34;9.70;88.20
23560;DHT22;11958;50.836;4.438;2024-02-21T03:20:01;9.70;87.60
23560;DHT22;11958;50.836;4.438;2024-02-21T03:22:26;9.50;88.50
23560;DHT22;11958;50.836;4.438;2024-02-21T03:24:52;9.50;88.30
23560;DHT22;11958;50.836;4.438;2024-02-21T03:27:18;9.70;88.60
23560;DHT22;11958;50.836;4.438;2024-02-21T03:29:43;9.60;88.80
23560;DHT22;11958;50.836;4.438;2024-02-21T03:32:09;9.50;88.60
23560;DHT22;11958;50.836;4.438;2024-02-21T03:34:35;9.70;88.90
23560;DHT22;11958;50.836;4.438;2024-02-21T03:37:00;9.80;88.10
23560;DHT22;11958;50.836;4.438;2024-02-21T03:39:26;9.60;88.30
23560;DHT22;11958;50.836;4.438;2024-02-21T03:41:52;9.60;89.00
23560;DHT22;11958;50.836;4.438;2024-02-21T03:44:17;9.80;88.00
23560;DHT22;11958;50.836;4.438;2024-02-21T03:46:43;9.60;88.60
23560;DHT22;11958;50.836;4.438;2024-02-21T03:49:09;9.50;88.80
23560;DHT22;11958;50.836;4.438;2024-02-21T03:51:34;9.50;89.20
23560;DHT22;11958;50.836;4.438;2024-02-21T03:54:00;9.90;88.10
23560;DHT22;11958;50.836;4.438;2024-02-21T03:56:26;9.60;89.00
23560;DHT22;11958;50.836;4.438;2024-02-21T03:58:51;9.60;88.90
23560;DHT22;11958;50.836;4.438;2024-02-21T04:01:17;9.60;88.90
23560;DHT22;11958;50.836;4.438;2024-02-21T04:03:44;9.40;88.70
23560;DHT22;11958;50.836;4.438;2024-02-21T04:06:09;9.40;89.00
23560;DHT22;11958;50.836;4.438;2024-02-21T04:08:36;9.40;89.50
23560;DHT22;11958;50.836;4.438;2024-02-21T04:11:02;9.30;89.90
23560;DHT22;11958;50.836;4.438;2024-02-21T04:13:27;9.40;89.30
23560;DHT22;11958;50.836;4.438;2024-02-21T04:15:53;9.60;89.00
23560;DHT22;11958;50.836;4.438;2024-02-21T04:18:19;9.50;88.90
23560;DHT22;11958;50.836;4.438;2024-02-21T04:20:44;9.50;89.10
23560;DHT22;11958;50.836;4.438;2024-02-21T04:23:10;9.40;88.90
23560;DHT22;11958;50.836;4.438;2024-02-21T04:25:36;9.20;89.50
23560;DHT22;11958;50.836;4.438;2024-02-21T04:28:02;9.30;90.30
23560;DHT22;11958;50.836;4.438;2024-02-21T04:30:28;9.40;88.90
23560;DHT22;11958;50.836;4.438;2024-02-21T04:32:54;9.20;89.90
23560;DHT22;11958;50.836;4.438;2024-02-21T04:35:20;9.20;90.00
23560;DHT22;11958;50.836;4.438;2024-02-21T04:37:46;9.20;90.40
23560;DHT22;11958;50.836;4.438;2024-02-21T04:40:11;9.30;90.20
23560;DHT22;11958;50.836;4.438;2024-02-21T04:42:37;9.20;90.30
23560;DHT22;11958;50.836;4.438;2024-02-21T04:45:03;9.00;90.10
23560;DHT22;11958;50.836;4.438;2024-02-21T04:47:29;9.20;90.30
23560;DHT22;11958;50.836;4.438;2024-02-21T04:49:55;9.30;90.10
23560;DHT22;11958;50.836;4.438;2024-02-21T04:52:20;9.30;89.60
23560;DHT22;11958;50.836;4.438;2024-02-21T04:54:46;9.30;90.00
23560;DHT22;11958;50.836;4.438;2024-02-21T04:57:11;9.30;90.00
23560;DHT22;11958;50.836;4.438;2024-02-21T04:59:46;9.30;90.00
23560;DHT22;11958;50.836;4.438;2024-02-21T05:02:13;9.30;89.20
23560;DHT22;11958;50.836;4.438;2024-02-21T05:04:39;9.30;89.70
23560;DHT22;11958;50.836;4.438;2024-02-21T05:07:06;9.40;89.40
23560;DHT22;11958;50.836;4.438;2024-02-21T05:09:32;9.60;88.90
23560;DHT22;11958;50.836;4.438;2024-02-21T05:11:58;9.30;89.40
23560;DHT22;11958;50.836;4.438;2024-02-21T05:14:26;9.40;89.90
23560;DHT22;11958;50.836;4.438;2024-02-21T05:16:52;9.30;89.00
23560;DHT22;11958;50.836;4.438;2024-02-21T05:19:18;9.40;89.80
23560;DHT22;11958;50.836;4.438;2024-02-21T05:21:44;9.40;89.40
23560;DHT22;11958;50.836;4.438;2024-02-21T05:24:09;9.40;89.00
23560;DHT22;11958;50.836;4.438;2024-02-21T05:26:35;9.30;89.20
23560;DHT22;11958;50.836;4.438;2024-02-21T05:29:01;9.30;89.80
23560;DHT22;11958;50.836;4.438;2024-02-21T05:34:20;9.50;89.30
23560;DHT22;11958;50.836;4.438;2024-02-21T05:36:46;9.20;89.30
23560;DHT22;11958;50.836;4.438;2024-02-21T05:39:13;9.30;89.60
23560;DHT22;11958;50.836;4.438;2024-02-21T05:41:39;9.30;89.20
23560;DHT22;11958;50.836;4.438;2024-02-21T05:44:05;9.20;89.60
23560;DHT22;11958;50.836;4.438;2024-02-21T05:46:31;9.10;89.90
23560;DHT22;11958;50.836;4.438;2024-02-21T05:48:57;9.20;89.50
23560;DHT22;11958;50.836;4.438;2024-02-21T05:51:23;9.30;89.70
23560;DHT22;11958;50.836;4.438;2024-02-21T05:53:48;9.30;89.70
23560;DHT22;11958;50.836;4.438;2024-02-21T05:56:15;9.50;89.00
23560;DHT22;11958;50.836;4.438;2024-02-21T05:58:41;9.50;88.70
23560;DHT22;11958;50.836;4.438;2024-02-21T06:01:07;9.50;88.50
23560;DHT22;11958;50.836;4.438;2024-02-21T06:03:33;9.40;88.40
23560;DHT22;11958;50.836;4.438;2024-02-21T06:06:00;9.50;88.10
23560;DHT22;11958;50.836;4.438;2024-02-21T06:08:26;9.50;88.30
23560;DHT22;11958;50.836;4.438;2024-02-21T06:10:51;9.70;87.30
23560;DHT22;11958;50.836;4.438;2024-02-21T06:13:29;9.40;88.20
23560;DHT22;11958;50.836;4.438;2024-02-21T06:15:54;9.50;88.30
23560;DHT22;11958;50.836;4.438;2024-02-21T06:18:20;9.50;88.30
23560;DHT22;11958;50.836;4.438;2024-02-21T06:20:47;9.50;87.90
23560;DHT22;11958;50.836;4.438;2024-02-21T06:23:13;9.20;88.70
23560;DHT22;11958;50.836;4.438;2024-02-21T06:25:38;9.30;89.10
23560;DHT22;11958;50.836;4.438;2024-02-21T06:28:05;9.40;88.80
23560;DHT22;11958;50.836;4.438;2024-02-21T06:30:31;9.30;88.80
23560;DHT22;11958;50.836;4.438;2024-02-21T06:32:56;9.30;88.90
23560;DHT22;11958;50.836;4.438;2024-02-21T06:35:22;9.30;89.60
23560;DHT22;11958;50.836;4.438;2024-02-21T06:37:52;9.20;90.20
23560;DHT22;11958;50.836;4.438;2024-02-21T06:40:20;9.20;90.10
23560;DHT22;11958;50.836;4.438;2024-02-21T06:42:46;9.20;90.10
23560;DHT22;11958;50.836;4.438;2024-02-21T06:45:11;9.30;90.20
23560;DHT22;11958;50.836;4.438;2024-02-21T06:47:37;9.30;90.80
23560;DHT22;11958;50.836;4.438;2024-02-21T06:50:06;9.30;90.90
23560;DHT22;11958;50.836;4.438;2024-02-21T06:52:32;9.20;90.70
23560;DHT22;11958;50.836;4.438;2024-02-21T06:54:57;9.30;91.30
23560;DHT22;11958;50.836;4.438;2024-02-21T06:57:23;9.20;91.80
23560;DHT22;11958;50.836;4.438;2024-02-21T06:59:49;9.20;92.20
23560;DHT22;11958;50.836;4.438;2024-02-21T07:02:15;9.30;92.30
23560;DHT22;11958;50.836;4.438;2024-02-21T07:04:40;9.20;92.60
23560;DHT22;11958;50.836;4.438;2024-02-21T07:07:06;9.20;93.40
23560;DHT22;11958;50.836;4.438;2024-02-21T07:09:32;9.10;93.70
23560;DHT22;11958;50.836;4.438;2024-02-21T07:11:58;9.10;94.40
23560;DHT22;11958;50.836;4.438;2024-02-21T07:14:24;9.00;94.90
23560;DHT22;11958;50.836;4.438;2024-02-21T07:16:51;8.90;94.90
23560;DHT22;11958;50.836;4.438;2024-02-21T07:19:16;8.90;95.10
23560;DHT22;11958;50.836;4.438;2024-02-21T07:21:42;9.00;95.10
23560;DHT22;11958;50.836;4.438;2024-02-21T07:24:08;9.10;95.40
23560;DHT22;11958;50.836;4.438;2024-02-21T07:26:34;9.10;95.20
23560;DHT22;11958;50.836;4.438;2024-02-21T07:29:00;9.30;94.70
23560;DHT22;11958;50.836;4.438;2024-02-21T07:31:29;9.30;94.70
23560;DHT22;11958;50.836;4.438;2024-02-21T07:33:54;9.20;94.70
23560;DHT22;11958;50.836;4.438;2024-02-21T07:36:30;9.10;95.10
23560;DHT22;11958;50.836;4.438;2024-02-21T07:38:58;9.30;95.10
23560;DHT22;11958;50.836;4.438;2024-02-21T07:41:27;9.20;95.10
23560;DHT22;11958;50.836;4.438;2024-02-21T07:43:55;9.40;94.30
23560;DHT22;11958;50.836;4.438;2024-02-21T07:46:21;9.30;94.20
23560;DHT22;11958;50.836;4.438;2024-02-21T07:48:47;9.30;94.40
23560;DHT22;11958;50.836;4.438;2024-02-21T07:51:13;9.50;94.10
23560;DHT22;11958;50.836;4.438;2024-02-21T07:53:39;9.40;93.50
23560;DHT22;11958;50.836;4.438;2024-02-21T07:56:13;9.40;93.00
23560;DHT22;11958;50.836;4.438;2024-02-21T07:58:39;9.50;93.20
23560;DHT22;11958;50.836;4.438;2024-02-21T08:01:05;9.50;92.70
23560;DHT22;11958;50.836;4.438;2024-02-21T08:03:31;9.40;92.40
23560;DHT22;11958;50.836;4.438;2024-02-21T08:05:56;9.50;92.40
23560;DHT22;11958;50.836;4.438;2024-02-21T08:08:22;9.40;92.40
23560;DHT22;11958;50.836;4.438;2024-02-21T08:10:48;9.50;91.90
23560;DHT22;11958;50.836;4.438;2024-02-21T08:13:14;9.50;91.90
23560;DHT22;11958;50.836;4.438;2024-02-21T08:15:40;9.50;90.60
23560;DHT22;11958;50.836;4.438;2024-02-21T08:18:07;9.50;91.00
23560;DHT22;11958;50.836;4.438;2024-02-21T08:20:33;9.40;90.70
23560;DHT22;11958;50.836;4.438;2024-02-21T08:22:58;9.50;90.60
23560;DHT22;11958;50.836;4.438;2024-02-21T08:25:24;9.30;89.80
23560;DHT22;11958;50.836;4.438;2024-02-21T08:27:50;9.20;91.20
23560;DHT22;11958;50.836;4.438;2024-02-21T08:30:17;9.50;90.70
23560;DHT22;11958;50.836;4.438;2024-02-21T08:32:42;9.50;90.50
23560;DHT22;11958;50.836;4.438;2024-02-21T08:35:08;9.80;89.90
23560;DHT22;11958;50.836;4.438;2024-02-21T08:37:34;9.80;88.70
23560;DHT22;11958;50.836;4.438;2024-02-21T08:39:59;9.80;88.50
23560;DHT22;11958;50.836;4.438;2024-02-21T08:42:34;9.70;88.80
23560;DHT22;11958;50.836;4.438;2024-02-21T08:45:00;9.70;89.00
23560;DHT22;11958;50.836;4.438;2024-02-21T08:47:26;9.70;88.70
23560;DHT22;11958;50.836;4.438;2024-02-21T08:49:51;9.80;88.20
23560;DHT22;11958;50.836;4.438;2024-02-21T08:52:17;9.80;87.60
23560;DHT22;11958;50.836;4.438;2024-02-21T08:54:43;9.70;87.80
23560;DHT22;11958;50.836;4.438;2024-02-21T08:57:09;9.80;87.70
23560;DHT22;11958;50.836;4.438;2024-02-21T08:59:35;9.80;87.60
23560;DHT22;11958;50.836;4.438;2024-02-21T09:02:00;9.90;88.00
23560;DHT22;11958;50.836;4.438;2024-02-21T09:04:28;10.00;87.60
23560;DHT22;11958;50.836;4.438;2024-02-21T09:06:54;9.80;86.80
23560;DHT22;11958;50.836;4.438;2024-02-21T09:09:20;9.70;86.90
23560;DHT22;11958;50.836;4.438;2024-02-21T09:11:46;9.80;87.30
23560;DHT22;11958;50.836;4.438;2024-02-21T09:14:12;9.80;87.60
23560;DHT22;11958;50.836;4.438;2024-02-21T09:16:37;9.90;86.70
23560;DHT22;11958;50.836;4.438;2024-02-21T09:19:03;9.90;86.80
23560;DHT22;11958;50.836;4.438;2024-02-21T09:21:28;9.80;86.70
23560;DHT22;11958;50.836;4.438;2024-02-21T09:23:54;9.80;86.90
23560;DHT22;11958;50.836;4.438;2024-02-21T09:26:20;9.70;87.40
23560;DHT22;11958;50.836;4.438;2024-02-21T09:28:46;9.80;87.50
23560;DHT22;11958;50.836;4.438;2024-02-21T09:31:11;10.00;86.70
23560;DHT22;11958;50.836;4.438;2024-02-21T09:33:37;9.90;86.70
23560;DHT22;11958;50.836;4.438;2024-02-21T09:36:03;10.00;86.50
23560;DHT22;11958;50.836;4.438;2024-02-21T09:38:31;10.00;86.80
23560;DHT22;11958;50.836;4.438;2024-02-21T09:43:34;10.00;86.70
23560;DHT22;11958;50.836;4.438;2024-02-21T09:46:08;10.00;86.40
23560;DHT22;11958;50.836;4.438;2024-02-21T09:51:54;10.30;86.30
23560;DHT22;11958;50.836;4.438;2024-02-21T09:54:21;10.50;85.60
23560;DHT22;11958;50.836;4.438;2024-02-21T09:56:48;10.70;84.90
23560;DHT22;11958;50.836;4.438;2024-02-21T09:59:16;10.60;84.80
23560;DHT22;11958;50.836;4.438;2024-02-21T10:01:43;10.90;84.40
23560;DHT22;11958;50.836;4.438;2024-02-21T10:04:10;10.90;83.20
23560;DHT22;11958;50.836;4.438;2024-02-21T10:06:36;10.80;83.70
23560;DHT22;11958;50.836;4.438;2024-02-21T10:09:03;10.60;84.00
23560;DHT22;11958;50.836;4.438;2024-02-21T10:11:29;10.60;84.70
23560;DHT22;11958;50.836;4.438;2024-02-21T10:14:05;10.80;83.90
23560;DHT22;11958;50.836;4.438;2024-02-21T10:16:31;10.60;83.70
23560;DHT22;11958;50.836;4.438;2024-02-21T10:18:57;10.60;84.40
23560;DHT22;11958;50.836;4.438;2024-02-21T10:21:22;10.60;83.30
23560;DHT22;11958;50.836;4.438;2024-02-21T10:23:49;10.60;84.70
23560;DHT22;11958;50.836;4.438;2024-02-21T10:26:16;10.80;84.00
23560;DHT22;11958;50.836;4.438;2024-02-21T10:28:42;10.90;84.40
23560;DHT22;11958;50.836;4.438;2024-02-21T10:31:11;11.20;82.60
23560;DHT22;11958;50.836;4.438;2024-02-21T10:33:38;11.10;82.80
23560;DHT22;11958;50.836;4.438;2024-02-21T10:36:10;10.90;84.10
23560;DHT22;11958;50.836;4.438;2024-02-21T10:38:37;11.10;82.50
23560;DHT22;11958;50.836;4.438;2024-02-21T10:41:07;10.80;83.40
23560;DHT22;11958;50.836;4.438;2024-02-21T10:43:40;11.10;82.00
23560;DHT22;11958;50.836;4.438;2024-02-21T10:46:06;11.00;82.00
23560;DHT22;11958;50.836;4.438;2024-02-21T10:49:01;11.10;82.60
23560;DHT22;11958;50.836;4.438;2024-02-21T10:51:32;10.80;82.60
23560;DHT22;11958;50.836;4.438;2024-02-21T10:56:54;10.90;82.40
23560;DHT22;11958;50.836;4.438;2024-02-21T10:59:21;10.80;82.20
23560;DHT22;11958;50.836;4.438;2024-02-21T11:01:48;10.90;81.80
23560;DHT22;11958;50.836;4.438;2024-02-21T11:04:14;11.10;82.20
23560;DHT22;11958;50.836;4.438;2024-02-21T11:06:40;11.40;80.80
23560;DHT22;11958;50.836;4.438;2024-02-21T11:09:08;11.50;80.30
23560;DHT22;11958;50.836;4.438;2024-02-21T11:12:03;11.40;81.00
23560;DHT22;11958;50.836;4.438;2024-02-21T11:14:29;11.10;80.20
23560;DHT22;11958;50.836;4.438;2024-02-21T11:17:01;11.00;80.70
23560;DHT22;11958;50.836;4.438;2024-02-21T11:19:28;11.30;81.20
23560;DHT22;11958;50.836;4.438;2024-02-21T11:21:56;11.50;80.00
23560;DHT22;11958;50.836;4.438;2024-02-21T11:24:27;11.20;80.60
23560;DHT22;11958;50.836;4.438;2024-02-21T11:26:55;11.20;80.60
23560;DHT22;11958;50.836;4.438;2024-02-21T11:29:24;11.00;80.60
23560;DHT22;11958;50.836;4.438;2024-02-21T11:31:51;11.10;81.30
23560;DHT22;11958;50.836;4.438;2024-02-21T11:34:18;11.00;81.30
23560;DHT22;11958;50.836;4.438;2024-02-21T11:36:52;11.00;81.20
23560;DHT22;11958;50.836;4.438;2024-02-21T11:39:27;10.90;81.70
23560;DHT22;11958;50.836;4.438;2024-02-21T11:42:19;11.00;81.40
23560;DHT22;11958;50.836;4.438;2024-02-21T11:44:45;11.20;81.70
23560;DHT22;11958;50.836;4.438;2024-02-21T11:47:15;11.00;82.00
23560;DHT22;11958;50.836;4.438;2024-02-21T11:49:46;11.00;81.10
23560;DHT22;11958;50.836;4.438;2024-02-21T11:52:12;11.00;80.60
23560;DHT22;11958;50.836;4.438;2024-02-21T11:54:40;10.70;81.30
23560;DHT22;11958;50.836;4.438;2024-02-21T11:57:06;10.70;81.10
23560;DHT22;11958;50.836;4.438;2024-02-21T11:59:32;10.50;81.30
23560;DHT22;11958;50.836;4.438;2024-02-21T12:01:59;10.50;82.10
23560;DHT22;11958;50.836;4.438;2024-02-21T12:04:25;10.40;81.90
23560;DHT22;11958;50.836;4.438;2024-02-21T12:06:53;10.70;81.40
23560;DHT22;11958;50.836;4.438;2024-02-21T12:09:19;10.70;81.70
23560;DHT22;11958;50.836;4.438;2024-02-21T12:11:45;10.60;82.60
23560;DHT22;11958;50.836;4.438;2024-02-21T12:14:22;10.40;81.80
23560;DHT22;11958;50.836;4.438;2024-02-21T12:16:50;10.40;82.60
23560;DHT22;11958;50.836;4.438;2024-02-21T12:19:17;10.50;82.70
23560;DHT22;11958;50.836;4.438;2024-02-21T12:21:43;10.50;82.90
23560;DHT22;11958;50.836;4.438;2024-02-21T12:24:17;10.60;82.30
23560;DHT22;11958;50.836;4.438;2024-02-21T12:26:43;10.60;82.40
23560;DHT22;11958;50.836;4.438;2024-02-21T12:29:09;10.60;83.50
23560;DHT22;11958;50.836;4.438;2024-02-21T12:31:38;10.60;82.40
23560;DHT22;11958;50.836;4.438;2024-02-21T12:34:04;10.50;82.60
23560;DHT22;11958;50.836;4.438;2024-02-21T12:36:36;10.60;82.90
23560;DHT22;11958;50.836;4.438;2024-02-21T12:39:06;10.70;82.00
23560;DHT22;11958;50.836;4.438;2024-02-21T12:41:31;10.50;82.40
23560;DHT22;11958;50.836;4.438;2024-02-21T12:43:58;10.50;83.10
23560;DHT22;11958;50.836;4.438;2024-02-21T12:46:24;10.70;83.40
23560;DHT22;11958;50.836;4.438;2024-02-21T12:48:50;11.00;82.00
23560;DHT22;11958;50.836;4.438;2024-02-21T12:51:16;10.90;81.80
23560;DHT22;11958;50.836;4.438;2024-02-21T12:53:47;11.10;80.90
23560;DHT22;11958;50.836;4.438;2024-02-21T12:56:13;11.20;81.00
23560;DHT22;11958;50.836;4.438;2024-02-21T12:58:39;11.30;81.20
23560;DHT22;11958;50.836;4.438;2024-02-21T13:01:05;11.30;80.80
23560;DHT22;11958;50.836;4.438;2024-02-21T13:03:30;11.40;80.90
23560;DHT22;11958;50.836;4.438;2024-02-21T13:05:56;11.30;80.20
23560;DHT22;11958;50.836;4.438;2024-02-21T13:08:21;11.40;80.80
23560;DHT22;11958;50.836;4.438;2024-02-21T13:10:48;11.00;81.00
23560;DHT22;11958;50.836;4.438;2024-02-21T13:13:14;11.10;81.20
23560;DHT22;11958;50.836;4.438;2024-02-21T13:15:40;11.10;81.30
23560;DHT22;11958;50.836;4.438;2024-02-21T13:18:08;11.20;81.00
23560;DHT22;11958;50.836;4.438;2024-02-21T13:20:34;11.20;80.70
23560;DHT22;11958;50.836;4.438;2024-02-21T13:22:59;11.20;80.80
23560;DHT22;11958;50.836;4.438;2024-02-21T13:25:25;11.10;81.20
23560;DHT22;11958;50.836;4.438;2024-02-21T13:27:51;11.10;80.90
23560;DHT22;11958;50.836;4.438;2024-02-21T13:30:16;11.10;81.80
23560;DHT22;11958;50.836;4.438;2024-02-21T13:32:44;11.20;80.80
23560;DHT22;11958;50.836;4.438;2024-02-21T13:35:11;11.10;81.10
23560;DHT22;11958;50.836;4.438;2024-02-21T13:40:03;11.20;81.20
23560;DHT22;11958;50.836;4.438;2024-02-21T13:42:29;11.30;81.40
23560;DHT22;11958;50.836;4.438;2024-02-21T13:44:55;11.40;80.90
23560;DHT22;11958;50.836;4.438;2024-02-21T13:47:21;11.30;81.30
23560;DHT22;11958;50.836;4.438;2024-02-21T13:49:47;11.30;81.40
23560;DHT22;11958;50.836;4.438;2024-02-21T13:52:13;11.00;82.20
23560;DHT22;11958;50.836;4.438;2024-02-21T13:54:39;11.00;82.90
23560;DHT22;11958;50.836;4.438;2024-02-21T13:57:05;10.90;84.10
23560;DHT22;11958;50.836;4.438;2024-02-21T13:59:31;10.70;84.70
23560;DHT22;11958;50.836;4.438;2024-02-21T14:01:59;10.90;84.80
23560;DHT22;11958;50.836;4.438;2024-02-21T14:04:24;10.50;85.80
23560;DHT22;11958;50.836;4.438;2024-02-21T14:06:50;10.60;85.40
23560;DHT22;11958;50.836;4.438;2024-02-21T14:09:16;10.50;86.50
23560;DHT22;11958;50.836;4.438;2024-02-21T14:11:41;10.60;86.00
23560;DHT22;11958;50.836;4.438;2024-02-21T14:14:07;10.80;86.10
23560;DHT22;11958;50.836;4.438;2024-02-21T14:16:33;10.70;85.30
23560;DHT22;11958;50.836;4.438;2024-02-21T14:18:59;10.60;86.90
23560;DHT22;11958;50.836;4.438;2024-02-21T14:21:25;10.60;87.10
23560;DHT22;11958;50.836;4.438;2024-02-21T14:23:51;10.50;87.10
23560;DHT22;11958;50.836;4.438;2024-02-21T14:26:18;10.60;87.10
23560;DHT22;11958;50.836;4.438;2024-02-21T14:28:43;10.60;87.00
23560;DHT22;11958;50.836;4.438;2024-02-21T14:31:09;10.40;88.30
23560;DHT22;11958;50.836;4.438;2024-02-21T14:33:36;10.40;89.00
23560;DHT22;11958;50.836;4.438;2024-02-21T14:36:01;10.30;89.00
23560;DHT22;11958;50.836;4.438;2024-02-21T14:38:28;10.40;89.30
23560;DHT22;11958;50.836;4.438;2024-02-21T14:40:54;10.20;89.80
23560;DHT22;11958;50.836;4.438;2024-02-21T14:43:20;10.20;90.10
23560;DHT22;11958;50.836;4.438;2024-02-21T14:45:48;10.10;90.50
23560;DHT22;11958;50.836;4.438;2024-02-21T14:48:14;10.10;90.50
23560;DHT22;11958;50.836;4.438;2024-02-21T14:50:40;10.00;90.80
23560;DHT22;11958;50.836;4.438;2024-02-21T14:53:07;10.10;91.60
23560;DHT22;11958;50.836;4.438;2024-02-21T14:55:34;10.00;91.40
23560;DHT22;11958;50.836;4.438;2024-02-21T14:57:59;9.90;91.90
23560;DHT22;11958;50.836;4.438;2024-02-21T15:00:26;10.00;92.10
23560;DHT22;11958;50.836;4.438;2024-02-21T15:02:59;10.00;92.40
23560;DHT22;11958;50.836;4.438;2024-02-21T15:05:25;10.00;92.10
23560;DHT22;11958;50.836;4.438;2024-02-21T15:07:52;9.90;92.00
23560;DHT22;11958;50.836;4.438;2024-02-21T15:10:18;9.80;93.00
23560;DHT22;11958;50.836;4.438;2024-02-21T15:12:47;9.80;93.30
23560;DHT22;11958;50.836;4.438;2024-02-21T15:15:13;9.70;93.80
23560;DHT22;11958;50.836;4.438;2024-02-21T15:17:39;9.70;93.20
23560;DHT22;11958;50.836;4.438;2024-02-21T15:20:05;9.80;94.10
23560;DHT22;11958;50.836;4.438;2024-02-21T15:22:35;9.80;93.30
23560;DHT22;11958;50.836;4.438;2024-02-21T15:25:01;9.90;93.50
23560;DHT22;11958;50.836;4.438;2024-02-21T15:27:27;9.90;93.50
23560;DHT22;11958;50.836;4.438;2024-02-21T15:29:54;10.00;93.20
23560;DHT22;11958;50.836;4.438;2024-02-21T15:32:20;9.90;93.80
23560;DHT22;11958;50.836;4.438;2024-02-21T15:34:46;9.90;93.60
23560;DHT22;11958;50.836;4.438;2024-02-21T15:37:11;9.80;94.50
23560;DHT22;11958;50.836;4.438;2024-02-21T15:39:41;9.60;94.20
23560;DHT22;11958;50.836;4.438;2024-02-21T15:42:07;9.60;94.80
23560;DHT22;11958;50.836;4.438;2024-02-21T15:44:35;9.70;95.30
23560;DHT22;11958;50.836;4.438;2024-02-21T15:47:01;9.70;95.40
23560;DHT22;11958;50.836;4.438;2024-02-21T15:49:29;9.70;95.50